sensor_id;sensor_type;location;lat;lon;timestamp;pressure;altitude;pressure_sealevel;temperature;humidity
19672;BME280;9983;51.114;13.788;2023-06-05T00:03:37;99816.78;;;12.82;65.32
19672;BME280;9983;51.114;13.788;2023-06-05T00:08:39;99810.56;;;12.05;68.88
19672;BME280;9983;51.114;13.788;2023-06-05T00:13:39;99811.09;;;12.32;68.18
19672;BME280;9983;51.114;13.788;2023-06-05T00:18:39;99809.19;;;12.40;67.61
19672;BME280;9983;51.114;13.788;2023-06-05T00:23:40;99804.22;;;11.98;67.88
19672;BME280;9983;51.114;13.788;2023-06-05T00:28:40;99809.84;;;11.72;69.60
19672;BME280;9983;51.114;13.788;2023-06-05T00:33:40;99806.63;;;11.93;69.08
19672;BME280;9983;51.114;13.788;2023-06-05T00:38:41;99801.09;;;11.95;69.18
19672;BME280;9983;51.114;13.788;2023-06-05T00:43:41;99799.31;;;11.79;69.32
19672;BME280;9983;51.114;13.788;2023-06-05T00:48:41;99797.34;;;11.57;70.52
19672;BME280;9983;51.114;13.788;2023-06-05T00:53:45;99795.34;;;11.51;70.76
19672;BME280;9983;51.114;13.788;2023-06-05T00:58:47;99800.06;;;11.40;70.71
19672;BME280;9983;51.114;13.788;2023-06-05T01:03:47;99805.16;;;11.27;71.55
19672;BME280;9983;51.114;13.788;2023-06-05T01:08:47;99790.41;;;11.78;68.42
19672;BME280;9983;51.114;13.788;2023-06-05T01:13:59;99791.94;;;11.65;68.58
19672;BME280;9983;51.114;13.788;2023-06-05T01:19:03;99790.00;;;11.43;69.93
19672;BME280;9983;51.114;13.788;2023-06-05T01:24:03;99793.47;;;10.72;73.42
19672;BME280;9983;51.114;13.788;2023-06-05T01:29:06;99792.47;;;10.64;73.73
19672;BME280;9983;51.114;13.788;2023-06-05T01:34:10;99794.13;;;10.98;71.56
19672;BME280;9983;51.114;13.788;2023-06-05T01:39:13;99802.88;;;10.68;73.27
19672;BME280;9983;51.114;13.788;2023-06-05T01:44:14;99789.75;;;11.05;71.88
19672;BME280;9983;51.114;13.788;2023-06-05T01:49:16;99791.81;;;10.54;74.60
19672;BME280;9983;51.114;13.788;2023-06-05T01:54:16;99779.88;;;10.73;73.46
19672;BME280;9983;51.114;13.788;2023-06-05T01:59:19;99791.44;;;10.90;72.14
19672;BME280;9983;51.114;13.788;2023-06-05T02:04:19;99789.28;;;10.37;74.96
19672;BME280;9983;51.114;13.788;2023-06-05T02:09:20;99786.41;;;10.38;75.27
19672;BME280;9983;51.114;13.788;2023-06-05T02:14:20;99785.22;;;10.24;75.93
19672;BME280;9983;51.114;13.788;2023-06-05T02:19:22;99775.91;;;9.78;77.94
19672;BME280;9983;51.114;13.788;2023-06-05T02:24:23;99765.84;;;9.80;78.00
19672;BME280;9983;51.114;13.788;2023-06-05T02:29:25;99772.56;;;9.84;78.37
19672;BME280;9983;51.114;13.788;2023-06-05T02:34:25;99771.19;;;9.80;78.18
19672;BME280;9983;51.114;13.788;2023-06-05T02:39:25;99770.06;;;9.99;77.21
19672;BME280;9983;51.114;13.788;2023-06-05T02:44:25;99767.88;;;9.86;77.88
19672;BME280;9983;51.114;13.788;2023-06-05T02:49:26;99765.84;;;9.80;78.12
19672;BME280;9983;51.114;13.788;2023-06-05T02:54:26;99771.22;;;9.97;76.98
19672;BME280;9983;51.114;13.788;2023-06-05T02:59:28;99776.22;;;10.42;74.59
19672;BME280;9983;51.114;13.788;2023-06-05T03:04:31;99772.09;;;9.55;78.65
19672;BME280;9983;51.114;13.788;2023-06-05T03:09:32;99770.03;;;9.41;80.41
19672;BME280;9983;51.114;13.788;2023-06-05T03:14:32;99777.78;;;9.52;79.60
19672;BME280;9983;51.114;13.788;2023-06-05T03:19:33;99776.22;;;9.83;78.49
19672;BME280;9983;51.114;13.788;2023-06-05T03:24:33;99778.53;;;10.20;76.05
19672;BME280;9983;51.114;13.788;2023-06-05T03:29:37;99774.28;;;9.18;81.42
19672;BME280;9983;51.114;13.788;2023-06-05T03:34:38;99773.34;;;10.27;76.04
19672;BME280;9983;51.114;13.788;2023-06-05T03:39:38;99765.31;;;10.19;76.18
19672;BME280;9983;51.114;13.788;2023-06-05T03:44:38;99773.84;;;10.31;76.16
19672;BME280;9983;51.114;13.788;2023-06-05T03:49:39;99777.69;;;10.20;77.06
19672;BME280;9983;51.114;13.788;2023-06-05T03:54:45;99779.06;;;10.40;75.90
19672;BME280;9983;51.114;13.788;2023-06-05T03:59:47;99774.69;;;10.31;77.40
19672;BME280;9983;51.114;13.788;2023-06-05T04:04:47;99775.03;;;10.28;77.77
19672;BME280;9983;51.114;13.788;2023-06-05T04:09:50;99777.72;;;10.52;77.03
19672;BME280;9983;51.114;13.788;2023-06-05T04:14:51;99781.22;;;10.93;75.77
19672;BME280;9983;51.114;13.788;2023-06-05T04:19:51;99770.22;;;11.35;74.64
19672;BME280;9983;51.114;13.788;2023-06-05T04:24:51;99769.19;;;11.45;74.74
19672;BME280;9983;51.114;13.788;2023-06-05T04:29:52;99768.84;;;11.48;75.09
19672;BME280;9983;51.114;13.788;2023-06-05T04:34:52;99767.56;;;12.05;72.89
19672;BME280;9983;51.114;13.788;2023-06-05T04:39:52;99776.91;;;12.18;72.07
19672;BME280;9983;51.114;13.788;2023-06-05T04:44:56;99774.53;;;12.23;72.44
19672;BME280;9983;51.114;13.788;2023-06-05T04:50:04;99780.09;;;11.90;75.87
19672;BME280;9983;51.114;13.788;2023-06-05T04:55:05;99774.22;;;13.01;71.55
19672;BME280;9983;51.114;13.788;2023-06-05T05:00:06;99771.00;;;13.05;71.30
19672;BME280;9983;51.114;13.788;2023-06-05T05:05:08;99770.44;;;13.83;68.00
19672;BME280;9983;51.114;13.788;2023-06-05T05:10:09;99780.53;;;13.60;70.14
19672;BME280;9983;51.114;13.788;2023-06-05T05:15:10;99779.84;;;13.73;69.89
19672;BME280;9983;51.114;13.788;2023-06-05T05:20:10;99783.03;;;13.61;69.76
19672;BME280;9983;51.114;13.788;2023-06-05T05:25:10;99780.19;;;13.99;70.01
19672;BME280;9983;51.114;13.788;2023-06-05T05:30:11;99782.97;;;14.63;66.72
19672;BME280;9983;51.114;13.788;2023-06-05T05:35:11;99787.34;;;14.42;68.04
19672;BME280;9983;51.114;13.788;2023-06-05T05:40:12;99786.66;;;14.83;66.41
19672;BME280;9983;51.114;13.788;2023-06-05T05:45:12;99781.88;;;15.06;66.03
19672;BME280;9983;51.114;13.788;2023-06-05T05:50:12;99782.03;;;15.26;66.29
19672;BME280;9983;51.114;13.788;2023-06-05T05:55:13;99784.31;;;15.57;66.05
19672;BME280;9983;51.114;13.788;2023-06-05T06:00:13;99780.97;;;15.89;65.46
19672;BME280;9983;51.114;13.788;2023-06-05T06:05:14;99782.31;;;16.20;64.38
19672;BME280;9983;51.114;13.788;2023-06-05T06:10:14;99788.81;;;16.39;63.85
19672;BME280;9983;51.114;13.788;2023-06-05T06:15:15;99784.28;;;16.65;62.43
19672;BME280;9983;51.114;13.788;2023-06-05T06:20:15;99786.19;;;16.85;58.04
19672;BME280;9983;51.114;13.788;2023-06-05T06:25:16;99779.56;;;17.07;59.33
19672;BME280;9983;51.114;13.788;2023-06-05T06:30:17;99775.34;;;17.24;56.21
19672;BME280;9983;51.114;13.788;2023-06-05T06:35:17;99781.34;;;17.46;56.75
19672;BME280;9983;51.114;13.788;2023-06-05T06:40:17;99778.81;;;17.71;56.79
19672;BME280;9983;51.114;13.788;2023-06-05T06:45:18;99780.63;;;17.90;58.86
19672;BME280;9983;51.114;13.788;2023-06-05T06:50:18;99786.28;;;18.27;53.42
19672;BME280;9983;51.114;13.788;2023-06-05T06:55:18;99786.19;;;18.46;53.51
19672;BME280;9983;51.114;13.788;2023-06-05T07:00:18;99787.75;;;18.67;52.61
19672;BME280;9983;51.114;13.788;2023-06-05T07:05:20;99778.13;;;19.21;51.35
19672;BME280;9983;51.114;13.788;2023-06-05T07:10:20;99786.06;;;19.65;51.29
19672;BME280;9983;51.114;13.788;2023-06-05T07:15:20;99791.34;;;19.79;49.03
19672;BME280;9983;51.114;13.788;2023-06-05T07:20:21;99782.78;;;19.93;48.02
19672;BME280;9983;51.114;13.788;2023-06-05T07:25:22;99778.28;;;20.17;48.62
19672;BME280;9983;51.114;13.788;2023-06-05T07:30:24;99777.97;;;20.25;46.64
19672;BME280;9983;51.114;13.788;2023-06-05T07:35:24;99771.13;;;20.53;46.51
19672;BME280;9983;51.114;13.788;2023-06-05T07:40:24;99783.41;;;20.73;46.12
19672;BME280;9983;51.114;13.788;2023-06-05T07:45:25;99770.41;;;20.99;45.14
19672;BME280;9983;51.114;13.788;2023-06-05T07:50:26;99776.22;;;21.02;42.48
19672;BME280;9983;51.114;13.788;2023-06-05T07:55:28;99767.50;;;21.24;43.10
19672;BME280;9983;51.114;13.788;2023-06-05T08:00:28;99756.16;;;21.78;40.35
19672;BME280;9983;51.114;13.788;2023-06-05T08:05:29;99758.13;;;21.94;38.41
19672;BME280;9983;51.114;13.788;2023-06-05T08:10:29;99764.72;;;22.22;39.43
19672;BME280;9983;51.114;13.788;2023-06-05T08:15:30;99756.13;;;22.30;38.02
19672;BME280;9983;51.114;13.788;2023-06-05T08:20:30;99765.50;;;22.34;38.06
19672;BME280;9983;51.114;13.788;2023-06-05T08:25:30;99759.25;;;22.50;39.09
19672;BME280;9983;51.114;13.788;2023-06-05T08:30:30;99761.84;;;22.74;38.05
19672;BME280;9983;51.114;13.788;2023-06-05T08:35:31;99754.09;;;22.82;36.45
19672;BME280;9983;51.114;13.788;2023-06-05T08:40:32;99759.75;;;23.09;38.10
19672;BME280;9983;51.114;13.788;2023-06-05T08:45:33;99741.91;;;23.23;36.24
19672;BME280;9983;51.114;13.788;2023-06-05T08:50:34;99750.53;;;23.15;37.26
19672;BME280;9983;51.114;13.788;2023-06-05T08:55:37;99746.94;;;23.31;37.01
19672;BME280;9983;51.114;13.788;2023-06-05T09:00:37;99749.75;;;23.36;37.07
19672;BME280;9983;51.114;13.788;2023-06-05T09:05:38;99742.81;;;23.89;37.69
19672;BME280;9983;51.114;13.788;2023-06-05T09:10:38;99742.03;;;24.15;35.83
19672;BME280;9983;51.114;13.788;2023-06-05T09:15:38;99734.03;;;24.31;36.08
19672;BME280;9983;51.114;13.788;2023-06-05T09:20:40;99735.16;;;24.35;37.37
19672;BME280;9983;51.114;13.788;2023-06-05T09:25:47;99729.16;;;24.38;35.98
19672;BME280;9983;51.114;13.788;2023-06-05T09:30:59;99731.16;;;24.74;36.29
19672;BME280;9983;51.114;13.788;2023-06-05T09:36:11;99741.97;;;24.59;34.75
19672;BME280;9983;51.114;13.788;2023-06-05T09:41:13;99742.47;;;24.83;34.87
19672;BME280;9983;51.114;13.788;2023-06-05T09:46:19;99727.94;;;24.87;33.63
19672;BME280;9983;51.114;13.788;2023-06-05T09:51:19;99719.38;;;25.11;33.93
19672;BME280;9983;51.114;13.788;2023-06-05T09:56:21;99712.13;;;25.37;34.56
19672;BME280;9983;51.114;13.788;2023-06-05T10:01:23;99718.50;;;25.42;32.50
19672;BME280;9983;51.114;13.788;2023-06-05T10:06:26;99715.13;;;25.30;32.89
19672;BME280;9983;51.114;13.788;2023-06-05T10:11:28;99698.34;;;25.74;32.61
19672;BME280;9983;51.114;13.788;2023-06-05T10:16:29;99707.00;;;26.02;32.18
19672;BME280;9983;51.114;13.788;2023-06-05T10:21:29;99701.59;;;26.53;31.07
19672;BME280;9983;51.114;13.788;2023-06-05T10:27:02;99705.66;;;26.25;32.33
19672;BME280;9983;51.114;13.788;2023-06-05T10:37:36;99687.56;;;27.15;30.39
19672;BME280;9983;51.114;13.788;2023-06-05T10:42:39;99696.84;;;27.55;29.94
19672;BME280;9983;51.114;13.788;2023-06-05T10:52:40;99682.22;;;28.14;27.74
19672;BME280;9983;51.114;13.788;2023-06-05T10:58:08;99681.16;;;28.10;28.13
19672;BME280;9983;51.114;13.788;2023-06-05T11:03:09;99686.78;;;28.78;26.59
19672;BME280;9983;51.114;13.788;2023-06-05T11:08:17;99684.44;;;28.95;26.81
19672;BME280;9983;51.114;13.788;2023-06-05T11:13:18;99683.97;;;28.83;26.84
19672;BME280;9983;51.114;13.788;2023-06-05T11:18:31;99683.88;;;28.93;25.89
19672;BME280;9983;51.114;13.788;2023-06-05T11:23:31;99682.78;;;30.32;25.14
19672;BME280;9983;51.114;13.788;2023-06-05T11:28:40;99677.50;;;29.21;26.06
19672;BME280;9983;51.114;13.788;2023-06-05T11:33:40;99670.97;;;30.07;25.33
19672;BME280;9983;51.114;13.788;2023-06-05T11:38:52;99672.28;;;30.66;24.19
19672;BME280;9983;51.114;13.788;2023-06-05T11:43:52;99667.72;;;31.08;23.90
19672;BME280;9983;51.114;13.788;2023-06-05T11:48:53;99652.22;;;32.83;22.22
19672;BME280;9983;51.114;13.788;2023-06-05T11:53:53;99655.00;;;32.61;22.78
19672;BME280;9983;51.114;13.788;2023-06-05T11:58:54;99648.38;;;32.12;22.53
19672;BME280;9983;51.114;13.788;2023-06-05T12:04:05;99641.59;;;32.18;22.55
19672;BME280;9983;51.114;13.788;2023-06-05T12:09:07;99637.31;;;32.57;22.22
19672;BME280;9983;51.114;13.788;2023-06-05T12:14:27;99645.84;;;34.44;20.46
19672;BME280;9983;51.114;13.788;2023-06-05T12:19:28;99638.31;;;35.64;18.85
19672;BME280;9983;51.114;13.788;2023-06-05T12:24:28;99630.72;;;34.97;20.07
19672;BME280;9983;51.114;13.788;2023-06-05T12:29:30;99620.59;;;34.84;19.82
19672;BME280;9983;51.114;13.788;2023-06-05T12:34:44;99623.22;;;34.89;19.20
19672;BME280;9983;51.114;13.788;2023-06-05T12:39:45;99615.22;;;34.01;19.98
19672;BME280;9983;51.114;13.788;2023-06-05T12:44:45;99610.03;;;35.45;18.35
19672;BME280;9983;51.114;13.788;2023-06-05T12:49:45;99610.06;;;32.81;20.89
19672;BME280;9983;51.114;13.788;2023-06-05T12:54:46;99598.72;;;34.22;20.17
19672;BME280;9983;51.114;13.788;2023-06-05T12:59:47;99595.59;;;34.41;19.70
19672;BME280;9983;51.114;13.788;2023-06-05T13:04:47;99591.75;;;33.11;21.09
19672;BME280;9983;51.114;13.788;2023-06-05T13:09:47;99591.56;;;32.46;21.60
19672;BME280;9983;51.114;13.788;2023-06-05T13:14:48;99584.69;;;32.07;21.06
19672;BME280;9983;51.114;13.788;2023-06-05T13:19:52;99577.97;;;33.37;19.98
19672;BME280;9983;51.114;13.788;2023-06-05T13:24:52;99575.81;;;35.35;20.10
19672;BME280;9983;51.114;13.788;2023-06-05T13:29:53;99575.78;;;34.08;20.86
19672;BME280;9983;51.114;13.788;2023-06-05T13:34:53;99562.72;;;32.11;20.33
19672;BME280;9983;51.114;13.788;2023-06-05T13:39:53;99576.09;;;34.15;21.04
19672;BME280;9983;51.114;13.788;2023-06-05T13:44:54;99578.75;;;32.89;20.76
19672;BME280;9983;51.114;13.788;2023-06-05T13:49:54;99567.66;;;32.36;21.38
19672;BME280;9983;51.114;13.788;2023-06-05T13:54:54;99558.50;;;32.35;21.56
19672;BME280;9983;51.114;13.788;2023-06-05T13:59:55;99566.56;;;31.24;22.39
19672;BME280;9983;51.114;13.788;2023-06-05T14:04:55;99565.31;;;33.87;20.06
19672;BME280;9983;51.114;13.788;2023-06-05T14:09:56;99569.50;;;34.62;19.58
19672;BME280;9983;51.114;13.788;2023-06-05T14:14:56;99557.63;;;33.76;19.94
19672;BME280;9983;51.114;13.788;2023-06-05T14:19:56;99559.78;;;31.71;21.41
19672;BME280;9983;51.114;13.788;2023-06-05T14:24:57;99554.47;;;32.19;22.04
19672;BME280;9983;51.114;13.788;2023-06-05T14:29:57;99557.50;;;31.59;21.77
19672;BME280;9983;51.114;13.788;2023-06-05T14:34:57;99539.03;;;31.69;21.87
19672;BME280;9983;51.114;13.788;2023-06-05T14:39:57;99546.09;;;30.19;23.47
19672;BME280;9983;51.114;13.788;2023-06-05T14:44:57;99540.00;;;30.36;22.92
19672;BME280;9983;51.114;13.788;2023-06-05T14:49:58;99532.91;;;30.62;22.83
19672;BME280;9983;51.114;13.788;2023-06-05T14:54:59;99540.06;;;30.63;23.15
19672;BME280;9983;51.114;13.788;2023-06-05T14:59:59;99538.19;;;30.45;23.21
19672;BME280;9983;51.114;13.788;2023-06-05T15:05:00;99533.78;;;29.74;24.44
19672;BME280;9983;51.114;13.788;2023-06-05T15:10:00;99543.25;;;29.49;24.40
19672;BME280;9983;51.114;13.788;2023-06-05T15:15:01;99534.34;;;29.33;24.80
19672;BME280;9983;51.114;13.788;2023-06-05T15:20:01;99542.66;;;29.10;25.51
19672;BME280;9983;51.114;13.788;2023-06-05T15:25:05;99543.31;;;28.78;25.26
19672;BME280;9983;51.114;13.788;2023-06-05T15:30:06;99534.88;;;28.35;25.98
19672;BME280;9983;51.114;13.788;2023-06-05T15:35:07;99539.88;;;28.33;25.89
19672;BME280;9983;51.114;13.788;2023-06-05T15:40:08;99534.06;;;27.95;26.64
19672;BME280;9983;51.114;13.788;2023-06-05T15:45:13;99535.09;;;28.05;26.99
19672;BME280;9983;51.114;13.788;2023-06-05T15:50:15;99523.06;;;27.51;27.61
19672;BME280;9983;51.114;13.788;2023-06-05T15:55:15;99523.56;;;27.64;27.82
19672;BME280;9983;51.114;13.788;2023-06-05T16:00:17;99527.19;;;27.59;27.85
19672;BME280;9983;51.114;13.788;2023-06-05T16:05:17;99520.19;;;27.28;28.29
19672;BME280;9983;51.114;13.788;2023-06-05T16:10:18;99518.13;;;26.94;28.93
19672;BME280;9983;51.114;13.788;2023-06-05T16:15:19;99515.22;;;27.25;28.74
19672;BME280;9983;51.114;13.788;2023-06-05T16:20:19;99527.94;;;27.15;29.12
19672;BME280;9983;51.114;13.788;2023-06-05T16:25:20;99520.78;;;27.14;29.40
19672;BME280;9983;51.114;13.788;2023-06-05T16:30:20;99524.13;;;27.06;30.00
19672;BME280;9983;51.114;13.788;2023-06-05T16:35:20;99521.44;;;26.91;30.91
19672;BME280;9983;51.114;13.788;2023-06-05T16:40:21;99524.69;;;26.88;30.82
19672;BME280;9983;51.114;13.788;2023-06-05T16:45:21;99528.13;;;26.44;32.26
19672;BME280;9983;51.114;13.788;2023-06-05T16:50:21;99526.75;;;26.42;32.10
19672;BME280;9983;51.114;13.788;2023-06-05T16:55:21;99534.16;;;26.21;32.28
19672;BME280;9983;51.114;13.788;2023-06-05T17:00:22;99539.66;;;25.91;34.36
19672;BME280;9983;51.114;13.788;2023-06-05T17:05:22;99534.63;;;25.57;36.59
19672;BME280;9983;51.114;13.788;2023-06-05T17:10:22;99531.84;;;25.42;38.08
19672;BME280;9983;51.114;13.788;2023-06-05T17:15:23;99533.31;;;24.92;39.26
19672;BME280;9983;51.114;13.788;2023-06-05T17:20:23;99533.81;;;24.89;40.77
19672;BME280;9983;51.114;13.788;2023-06-05T17:25:23;99540.47;;;25.04;39.46
19672;BME280;9983;51.114;13.788;2023-06-05T17:30:23;99541.41;;;24.72;40.56
19672;BME280;9983;51.114;13.788;2023-06-05T17:35:24;99543.13;;;24.83;39.43
19672;BME280;9983;51.114;13.788;2023-06-05T17:40:24;99549.38;;;24.37;41.56
19672;BME280;9983;51.114;13.788;2023-06-05T17:45:25;99542.38;;;24.51;41.73
19672;BME280;9983;51.114;13.788;2023-06-05T17:50:25;99534.59;;;24.80;40.73
19672;BME280;9983;51.114;13.788;2023-06-05T17:55:26;99536.81;;;24.41;41.84
19672;BME280;9983;51.114;13.788;2023-06-05T18:00:26;99541.22;;;24.42;42.54
19672;BME280;9983;51.114;13.788;2023-06-05T18:05:26;99541.75;;;24.44;42.70
19672;BME280;9983;51.114;13.788;2023-06-05T18:10:27;99540.66;;;24.45;43.00
19672;BME280;9983;51.114;13.788;2023-06-05T18:15:27;99551.03;;;24.06;44.60
19672;BME280;9983;51.114;13.788;2023-06-05T18:20:27;99555.34;;;24.29;44.52
19672;BME280;9983;51.114;13.788;2023-06-05T18:25:28;99555.97;;;23.77;46.35
19672;BME280;9983;51.114;13.788;2023-06-05T18:30:28;99560.56;;;23.71;46.90
19672;BME280;9983;51.114;13.788;2023-06-05T18:35:29;99567.47;;;23.79;46.64
19672;BME280;9983;51.114;13.788;2023-06-05T18:40:29;99566.53;;;23.41;47.95
19672;BME280;9983;51.114;13.788;2023-06-05T18:45:29;99569.97;;;23.32;48.49
19672;BME280;9983;51.114;13.788;2023-06-05T18:50:30;99573.59;;;23.16;49.47
19672;BME280;9983;51.114;13.788;2023-06-05T18:55:31;99564.09;;;23.01;50.19
19672;BME280;9983;51.114;13.788;2023-06-05T19:00:31;99580.25;;;23.03;49.92
19672;BME280;9983;51.114;13.788;2023-06-05T19:05:32;99583.78;;;22.82;51.05
19672;BME280;9983;51.114;13.788;2023-06-05T19:10:32;99581.59;;;23.00;50.29
19672;BME280;9983;51.114;13.788;2023-06-05T19:15:32;99592.72;;;22.60;51.45
19672;BME280;9983;51.114;13.788;2023-06-05T19:20:33;99591.56;;;22.73;51.07
19672;BME280;9983;51.114;13.788;2023-06-05T19:25:34;99592.06;;;22.53;51.51
19672;BME280;9983;51.114;13.788;2023-06-05T19:30:34;99596.31;;;21.82;54.26
19672;BME280;9983;51.114;13.788;2023-06-05T19:35:35;99593.28;;;21.95;54.45
19672;BME280;9983;51.114;13.788;2023-06-05T19:40:35;99598.50;;;21.40;56.30
19672;BME280;9983;51.114;13.788;2023-06-05T19:45:35;99595.97;;;21.79;55.10
19672;BME280;9983;51.114;13.788;2023-06-05T19:50:35;99598.13;;;21.93;54.86
19672;BME280;9983;51.114;13.788;2023-06-05T19:55:36;99601.78;;;21.82;55.52
19672;BME280;9983;51.114;13.788;2023-06-05T20:00:38;99599.03;;;21.54;56.34
19672;BME280;9983;51.114;13.788;2023-06-05T20:05:38;99602.75;;;21.76;55.67
19672;BME280;9983;51.114;13.788;2023-06-05T20:10:38;99592.84;;;21.87;55.26
19672;BME280;9983;51.114;13.788;2023-06-05T20:15:38;99604.66;;;21.47;57.47
19672;BME280;9983;51.114;13.788;2023-06-05T20:20:39;99595.25;;;21.55;56.91
19672;BME280;9983;51.114;13.788;2023-06-05T20:25:39;99599.03;;;21.54;56.95
19672;BME280;9983;51.114;13.788;2023-06-05T20:30:40;99596.31;;;21.54;57.36
19672;BME280;9983;51.114;13.788;2023-06-05T20:35:43;99588.72;;;21.04;59.80
19672;BME280;9983;51.114;13.788;2023-06-05T20:40:45;99599.66;;;20.81;60.91
19672;BME280;9983;51.114;13.788;2023-06-05T20:45:49;99590.84;;;21.02;60.65
19672;BME280;9983;51.114;13.788;2023-06-05T20:50:50;99594.34;;;20.63;62.35
19672;BME280;9983;51.114;13.788;2023-06-05T20:55:50;99586.53;;;20.55;62.74
19672;BME280;9983;51.114;13.788;2023-06-05T21:00:50;99596.34;;;20.79;62.68
19672;BME280;9983;51.114;13.788;2023-06-05T21:05:51;99595.38;;;20.85;62.40
19672;BME280;9983;51.114;13.788;2023-06-05T21:10:51;99600.84;;;20.38;65.54
19672;BME280;9983;51.114;13.788;2023-06-05T21:15:51;99597.06;;;20.39;66.60
19672;BME280;9983;51.114;13.788;2023-06-05T21:20:52;99589.22;;;20.78;64.42
19672;BME280;9983;51.114;13.788;2023-06-05T21:25:53;99599.75;;;20.86;64.44
19672;BME280;9983;51.114;13.788;2023-06-05T21:30:53;99610.94;;;20.08;68.41
19672;BME280;9983;51.114;13.788;2023-06-05T21:35:58;99596.72;;;20.48;67.04
19672;BME280;9983;51.114;13.788;2023-06-05T21:40:59;99606.47;;;20.25;68.74
19672;BME280;9983;51.114;13.788;2023-06-05T21:45:59;99597.19;;;20.56;66.12
19672;BME280;9983;51.114;13.788;2023-06-05T21:50:59;99597.72;;;20.23;68.22
19672;BME280;9983;51.114;13.788;2023-06-05T21:55:59;99607.28;;;20.26;67.84
19672;BME280;9983;51.114;13.788;2023-06-05T22:01:00;99615.84;;;19.88;70.66
19672;BME280;9983;51.114;13.788;2023-06-05T22:06:00;99605.28;;;20.21;69.09
19672;BME280;9983;51.114;13.788;2023-06-05T22:11:01;99604.56;;;20.14;70.22
19672;BME280;9983;51.114;13.788;2023-06-05T22:16:02;99595.22;;;20.22;70.51
19672;BME280;9983;51.114;13.788;2023-06-05T22:21:03;99594.66;;;19.48;74.43
19672;BME280;9983;51.114;13.788;2023-06-05T22:26:03;99596.00;;;19.39;77.52
19672;BME280;9983;51.114;13.788;2023-06-05T22:31:03;99606.25;;;19.55;76.66
19672;BME280;9983;51.114;13.788;2023-06-05T22:36:04;99607.94;;;19.56;77.31
19672;BME280;9983;51.114;13.788;2023-06-05T22:41:04;99604.03;;;19.16;79.29
19672;BME280;9983;51.114;13.788;2023-06-05T22:46:05;99595.69;;;19.29;80.31
19672;BME280;9983;51.114;13.788;2023-06-05T22:51:06;99596.84;;;19.03;82.31
19672;BME280;9983;51.114;13.788;2023-06-05T22:56:06;99613.16;;;18.60;85.34
19672;BME280;9983;51.114;13.788;2023-06-05T23:01:07;99603.88;;;18.74;85.29
19672;BME280;9983;51.114;13.788;2023-06-05T23:06:07;99603.59;;;18.33;88.67
19672;BME280;9983;51.114;13.788;2023-06-05T23:11:07;99603.19;;;18.54;87.76
19672;BME280;9983;51.114;13.788;2023-06-05T23:16:08;99614.03;;;18.04;91.73
19672;BME280;9983;51.114;13.788;2023-06-05T23:21:09;99622.78;;;18.06;94.22
19672;BME280;9983;51.114;13.788;2023-06-05T23:26:10;99624.50;;;18.57;90.44
19672;BME280;9983;51.114;13.788;2023-06-05T23:31:11;99622.47;;;18.46;94.20
19672;BME280;9983;51.114;13.788;2023-06-05T23:36:11;99627.94;;;17.83;98.44
19672;BME280;9983;51.114;13.788;2023-06-05T23:41:11;99620.75;;;18.51;93.12
19672;BME280;9983;51.114;13.788;2023-06-05T23:46:12;99615.16;;;18.22;98.61
19672;BME280;9983;51.114;13.788;2023-06-05T23:51:12;99602.78;;;18.57;95.48
19672;BME280;9983;51.114;13.788;2023-06-05T23:56:12;99608.69;;;17.91;100.00
